sensor_id;sensor_type;location;lat;lon;timestamp;temperature;humidity
55203;DHT22;41077;52.956;6.796;2022-10-31T00:01:16;13.70;99.90
55203;DHT22;41077;52.956;6.796;2022-10-31T00:03:42;13.60;99.90
55203;DHT22;41077;52.956;6.796;2022-10-31T00:06:08;13.60;99.90
55203;DHT22;41077;52.956;6.796;2022-10-31T00:08:33;13.60;99.90
55203;DHT22;41077;52.956;6.796;2022-10-31T00:10:59;13.50;99.90
55203;DHT22;41077;52.956;6.796;2022-10-31T00:13:25;13.50;99.90
55203;DHT22;41077;52.956;6.796;2022-10-31T00:15:50;13.50;99.90
55203;DHT22;41077;52.956;6.796;2022-10-31T00:18:16;13.40;99.90
55203;DHT22;41077;52.956;6.796;2022-10-31T00:20:42;13.40;99.90
55203;DHT22;41077;52.956;6.796;2022-10-31T00:23:08;13.40;99.90
55203;DHT22;41077;52.956;6.796;2022-10-31T00:25:37;13.40;99.90
55203;DHT22;41077;52.956;6.796;2022-10-31T00:28:04;13.40;99.90
55203;DHT22;41077;52.956;6.796;2022-10-31T00:30:30;13.40;99.90
55203;DHT22;41077;52.956;6.796;2022-10-31T00:32:56;13.40;99.90
55203;DHT22;41077;52.956;6.796;2022-10-31T00:35:22;13.40;99.90
55203;DHT22;41077;52.956;6.796;2022-10-31T00:37:47;13.40;99.90
55203;DHT22;41077;52.956;6.796;2022-10-31T00:40:13;13.40;99.90
55203;DHT22;41077;52.956;6.796;2022-10-31T00:42:40;13.30;99.90
55203;DHT22;41077;52.956;6.796;2022-10-31T00:45:10;13.30;99.90
55203;DHT22;41077;52.956;6.796;2022-10-31T00:47:36;13.30;99.90
55203;DHT22;41077;52.956;6.796;2022-10-31T00:50:03;13.20;99.90
55203;DHT22;41077;52.956;6.796;2022-10-31T00:52:29;13.20;99.90
55203;DHT22;41077;52.956;6.796;2022-10-31T00:54:55;13.20;99.90
55203;DHT22;41077;52.956;6.796;2022-10-31T00:57:20;13.20;99.90
55203;DHT22;41077;52.956;6.796;2022-10-31T00:59:46;13.10;99.90
55203;DHT22;41077;52.956;6.796;2022-10-31T01:02:12;13.10;99.90
55203;DHT22;41077;52.956;6.796;2022-10-31T01:04:37;13.10;99.90
55203;DHT22;41077;52.956;6.796;2022-10-31T01:07:03;13.10;99.90
55203;DHT22;41077;52.956;6.796;2022-10-31T01:09:29;13.00;99.90
55203;DHT22;41077;52.956;6.796;2022-10-31T01:11:55;13.00;99.90
55203;DHT22;41077;52.956;6.796;2022-10-31T01:14:20;13.00;99.90
55203;DHT22;41077;52.956;6.796;2022-10-31T01:16:46;12.90;99.90
55203;DHT22;41077;52.956;6.796;2022-10-31T01:19:11;13.00;99.90
55203;DHT22;41077;52.956;6.796;2022-10-31T01:21:37;12.90;99.90
55203;DHT22;41077;52.956;6.796;2022-10-31T01:24:03;12.90;99.90
55203;DHT22;41077;52.956;6.796;2022-10-31T01:26:30;12.90;99.90
55203;DHT22;41077;52.956;6.796;2022-10-31T01:29:02;12.80;99.90
55203;DHT22;41077;52.956;6.796;2022-10-31T01:31:30;12.70;99.90
55203;DHT22;41077;52.956;6.796;2022-10-31T01:33:57;12.70;99.90
55203;DHT22;41077;52.956;6.796;2022-10-31T01:36:28;12.70;99.90
55203;DHT22;41077;52.956;6.796;2022-10-31T01:38:57;12.70;99.90
55203;DHT22;41077;52.956;6.796;2022-10-31T01:41:29;12.70;99.90
55203;DHT22;41077;52.956;6.796;2022-10-31T01:43:57;12.70;99.90
55203;DHT22;41077;52.956;6.796;2022-10-31T01:46:37;12.60;99.90
55203;DHT22;41077;52.956;6.796;2022-10-31T01:49:11;12.60;99.90
55203;DHT22;41077;52.956;6.796;2022-10-31T01:51:42;12.70;99.90
55203;DHT22;41077;52.956;6.796;2022-10-31T01:54:13;12.70;99.90
55203;DHT22;41077;52.956;6.796;2022-10-31T01:56:41;12.70;99.90
55203;DHT22;41077;52.956;6.796;2022-10-31T01:59:12;12.70;99.90
55203;DHT22;41077;52.956;6.796;2022-10-31T02:01:40;12.60;99.90
55203;DHT22;41077;52.956;6.796;2022-10-31T02:04:06;12.60;99.90
55203;DHT22;41077;52.956;6.796;2022-10-31T02:06:36;12.60;99.90
55203;DHT22;41077;52.956;6.796;2022-10-31T02:09:04;12.60;99.90
55203;DHT22;41077;52.956;6.796;2022-10-31T02:11:31;12.60;99.90
55203;DHT22;41077;52.956;6.796;2022-10-31T02:13:58;12.50;99.90
55203;DHT22;41077;52.956;6.796;2022-10-31T02:16:25;12.50;99.90
55203;DHT22;41077;52.956;6.796;2022-10-31T02:18:50;12.50;99.90
55203;DHT22;41077;52.956;6.796;2022-10-31T02:24:23;12.50;99.90
55203;DHT22;41077;52.956;6.796;2022-10-31T02:36:04;12.40;99.90
55203;DHT22;41077;52.956;6.796;2022-10-31T02:41:35;12.40;99.90
55203;DHT22;41077;52.956;6.796;2022-10-31T02:49:29;12.20;99.90
55203;DHT22;41077;52.956;6.796;2022-10-31T02:51:57;12.20;99.90
55203;DHT22;41077;52.956;6.796;2022-10-31T02:54:25;12.20;99.90
55203;DHT22;41077;52.956;6.796;2022-10-31T02:56:54;12.10;99.90
55203;DHT22;41077;52.956;6.796;2022-10-31T02:59:22;12.00;99.90
55203;DHT22;41077;52.956;6.796;2022-10-31T03:02:04;12.00;99.90
55203;DHT22;41077;52.956;6.796;2022-10-31T03:10:04;11.80;99.90
55203;DHT22;41077;52.956;6.796;2022-10-31T03:12:40;11.70;99.90
55203;DHT22;41077;52.956;6.796;2022-10-31T03:20:30;11.70;99.90
55203;DHT22;41077;52.956;6.796;2022-10-31T03:23:01;11.60;99.90
55203;DHT22;41077;52.956;6.796;2022-10-31T03:25:29;11.60;99.90
55203;DHT22;41077;52.956;6.796;2022-10-31T03:27:57;11.50;99.90
55203;DHT22;41077;52.956;6.796;2022-10-31T03:30:24;11.50;99.90
55203;DHT22;41077;52.956;6.796;2022-10-31T03:32:55;11.40;99.90
55203;DHT22;41077;52.956;6.796;2022-10-31T03:35:23;11.30;99.90
55203;DHT22;41077;52.956;6.796;2022-10-31T03:37:51;11.30;99.90
55203;DHT22;41077;52.956;6.796;2022-10-31T03:40:20;11.20;99.90
55203;DHT22;41077;52.956;6.796;2022-10-31T03:42:52;11.20;99.90
55203;DHT22;41077;52.956;6.796;2022-10-31T03:45:25;11.10;99.90
55203;DHT22;41077;52.956;6.796;2022-10-31T03:47:53;11.10;99.90
55203;DHT22;41077;52.956;6.796;2022-10-31T03:50:20;11.00;99.90
55203;DHT22;41077;52.956;6.796;2022-10-31T03:53:16;11.00;99.90
55203;DHT22;41077;52.956;6.796;2022-10-31T03:56:02;10.90;99.90
55203;DHT22;41077;52.956;6.796;2022-10-31T03:58:38;10.90;99.90
55203;DHT22;41077;52.956;6.796;2022-10-31T04:01:07;10.90;99.90
55203;DHT22;41077;52.956;6.796;2022-10-31T04:03:37;10.90;99.90
55203;DHT22;41077;52.956;6.796;2022-10-31T04:06:06;10.80;99.90
55203;DHT22;41077;52.956;6.796;2022-10-31T04:08:40;10.80;99.90
55203;DHT22;41077;52.956;6.796;2022-10-31T04:11:08;10.80;99.90
55203;DHT22;41077;52.956;6.796;2022-10-31T04:13:36;10.70;99.90
55203;DHT22;41077;52.956;6.796;2022-10-31T04:16:02;10.70;99.90
55203;DHT22;41077;52.956;6.796;2022-10-31T04:18:28;10.70;99.90
55203;DHT22;41077;52.956;6.796;2022-10-31T04:21:06;10.70;99.90
55203;DHT22;41077;52.956;6.796;2022-10-31T04:23:33;10.70;99.90
55203;DHT22;41077;52.956;6.796;2022-10-31T04:25:59;10.70;99.90
55203;DHT22;41077;52.956;6.796;2022-10-31T04:28:25;10.60;99.90
55203;DHT22;41077;52.956;6.796;2022-10-31T04:30:51;10.60;99.90
55203;DHT22;41077;52.956;6.796;2022-10-31T04:33:17;10.60;99.90
55203;DHT22;41077;52.956;6.796;2022-10-31T04:35:42;10.60;99.90
55203;DHT22;41077;52.956;6.796;2022-10-31T04:38:08;10.50;99.90
55203;DHT22;41077;52.956;6.796;2022-10-31T04:40:34;10.50;99.90
55203;DHT22;41077;52.956;6.796;2022-10-31T04:42:59;10.40;99.90
55203;DHT22;41077;52.956;6.796;2022-10-31T04:45:25;10.40;99.90
55203;DHT22;41077;52.956;6.796;2022-10-31T04:47:51;10.40;99.90
55203;DHT22;41077;52.956;6.796;2022-10-31T04:50:16;10.30;99.90
55203;DHT22;41077;52.956;6.796;2022-10-31T04:52:43;10.30;99.90
55203;DHT22;41077;52.956;6.796;2022-10-31T04:55:10;10.30;99.90
55203;DHT22;41077;52.956;6.796;2022-10-31T04:57:46;10.30;99.90
55203;DHT22;41077;52.956;6.796;2022-10-31T05:00:14;10.30;99.90
55203;DHT22;41077;52.956;6.796;2022-10-31T05:02:47;10.30;99.90
55203;DHT22;41077;52.956;6.796;2022-10-31T05:05:14;10.20;99.90
55203;DHT22;41077;52.956;6.796;2022-10-31T05:07:42;10.20;99.90
55203;DHT22;41077;52.956;6.796;2022-10-31T05:10:10;10.20;99.90
55203;DHT22;41077;52.956;6.796;2022-10-31T05:12:36;10.10;99.90
55203;DHT22;41077;52.956;6.796;2022-10-31T05:15:03;10.10;99.90
55203;DHT22;41077;52.956;6.796;2022-10-31T05:17:31;10.10;99.90
55203;DHT22;41077;52.956;6.796;2022-10-31T05:19:56;10.00;99.90
55203;DHT22;41077;52.956;6.796;2022-10-31T05:22:22;10.00;99.90
55203;DHT22;41077;52.956;6.796;2022-10-31T05:24:48;10.00;99.90
55203;DHT22;41077;52.956;6.796;2022-10-31T05:27:13;10.00;99.90
55203;DHT22;41077;52.956;6.796;2022-10-31T05:29:39;10.00;99.90
55203;DHT22;41077;52.956;6.796;2022-10-31T05:32:04;10.00;99.90
55203;DHT22;41077;52.956;6.796;2022-10-31T05:34:30;10.00;99.90
55203;DHT22;41077;52.956;6.796;2022-10-31T05:36:56;9.90;99.90
55203;DHT22;41077;52.956;6.796;2022-10-31T05:39:21;9.90;99.90
55203;DHT22;41077;52.956;6.796;2022-10-31T05:41:47;9.90;99.90
55203;DHT22;41077;52.956;6.796;2022-10-31T05:44:13;9.90;99.90
55203;DHT22;41077;52.956;6.796;2022-10-31T05:46:38;9.80;99.90
55203;DHT22;41077;52.956;6.796;2022-10-31T05:49:04;9.80;99.90
55203;DHT22;41077;52.956;6.796;2022-10-31T05:51:29;9.80;99.90
55203;DHT22;41077;52.956;6.796;2022-10-31T05:53:55;9.80;99.90
55203;DHT22;41077;52.956;6.796;2022-10-31T05:56:21;9.70;99.90
55203;DHT22;41077;52.956;6.796;2022-10-31T05:58:46;9.70;99.90
55203;DHT22;41077;52.956;6.796;2022-10-31T06:01:12;9.80;99.90
55203;DHT22;41077;52.956;6.796;2022-10-31T06:03:38;9.80;99.90
55203;DHT22;41077;52.956;6.796;2022-10-31T06:06:03;9.80;99.90
55203;DHT22;41077;52.956;6.796;2022-10-31T06:08:29;9.80;99.90
55203;DHT22;41077;52.956;6.796;2022-10-31T06:10:55;9.80;99.90
55203;DHT22;41077;52.956;6.796;2022-10-31T06:13:21;9.80;99.90
55203;DHT22;41077;52.956;6.796;2022-10-31T06:15:46;9.80;99.90
55203;DHT22;41077;52.956;6.796;2022-10-31T06:18:12;9.80;99.90
55203;DHT22;41077;52.956;6.796;2022-10-31T06:20:38;9.80;99.90
55203;DHT22;41077;52.956;6.796;2022-10-31T06:23:04;9.80;99.90
55203;DHT22;41077;52.956;6.796;2022-10-31T06:25:30;9.70;99.90
55203;DHT22;41077;52.956;6.796;2022-10-31T06:27:56;9.70;99.90
55203;DHT22;41077;52.956;6.796;2022-10-31T06:30:21;9.70;99.90
55203;DHT22;41077;52.956;6.796;2022-10-31T06:32:47;9.70;99.90
55203;DHT22;41077;52.956;6.796;2022-10-31T06:35:13;9.70;99.90
55203;DHT22;41077;52.956;6.796;2022-10-31T06:37:38;9.70;99.90
55203;DHT22;41077;52.956;6.796;2022-10-31T06:40:05;9.70;99.90
55203;DHT22;41077;52.956;6.796;2022-10-31T06:42:31;9.70;99.90
55203;DHT22;41077;52.956;6.796;2022-10-31T06:44:56;9.80;99.90
55203;DHT22;41077;52.956;6.796;2022-10-31T06:47:22;9.80;99.90
55203;DHT22;41077;52.956;6.796;2022-10-31T06:49:48;9.80;99.90
55203;DHT22;41077;52.956;6.796;2022-10-31T06:52:13;9.80;99.90
55203;DHT22;41077;52.956;6.796;2022-10-31T06:54:39;9.80;99.90
55203;DHT22;41077;52.956;6.796;2022-10-31T06:57:04;9.80;99.90
55203;DHT22;41077;52.956;6.796;2022-10-31T06:59:30;9.80;99.90
55203;DHT22;41077;52.956;6.796;2022-10-31T07:01:57;9.80;99.90
55203;DHT22;41077;52.956;6.796;2022-10-31T07:04:23;9.90;99.90
55203;DHT22;41077;52.956;6.796;2022-10-31T07:06:53;9.80;99.90
55203;DHT22;41077;52.956;6.796;2022-10-31T07:09:18;9.90;99.90
55203;DHT22;41077;52.956;6.796;2022-10-31T07:11:44;9.90;99.90
55203;DHT22;41077;52.956;6.796;2022-10-31T07:14:10;9.80;99.90
55203;DHT22;41077;52.956;6.796;2022-10-31T07:16:35;9.90;99.90
55203;DHT22;41077;52.956;6.796;2022-10-31T07:19:01;9.90;99.90
55203;DHT22;41077;52.956;6.796;2022-10-31T07:21:27;9.90;99.90
55203;DHT22;41077;52.956;6.796;2022-10-31T07:23:52;9.80;99.90
55203;DHT22;41077;52.956;6.796;2022-10-31T07:26:18;9.80;99.90
55203;DHT22;41077;52.956;6.796;2022-10-31T07:28:46;9.80;99.90
55203;DHT22;41077;52.956;6.796;2022-10-31T07:31:12;9.80;99.90
55203;DHT22;41077;52.956;6.796;2022-10-31T07:33:38;9.80;99.90
55203;DHT22;41077;52.956;6.796;2022-10-31T07:36:04;9.80;99.90
55203;DHT22;41077;52.956;6.796;2022-10-31T07:38:29;9.80;99.90
55203;DHT22;41077;52.956;6.796;2022-10-31T07:40:55;9.80;99.90
55203;DHT22;41077;52.956;6.796;2022-10-31T07:43:21;9.70;99.90
55203;DHT22;41077;52.956;6.796;2022-10-31T07:45:54;9.70;99.90
55203;DHT22;41077;52.956;6.796;2022-10-31T07:48:20;9.70;99.90
55203;DHT22;41077;52.956;6.796;2022-10-31T07:50:46;9.70;99.90
55203;DHT22;41077;52.956;6.796;2022-10-31T07:53:13;9.80;99.90
55203;DHT22;41077;52.956;6.796;2022-10-31T07:55:39;9.70;99.90
55203;DHT22;41077;52.956;6.796;2022-10-31T07:58:07;9.80;99.90
55203;DHT22;41077;52.956;6.796;2022-10-31T08:00:34;9.80;99.90
55203;DHT22;41077;52.956;6.796;2022-10-31T08:03:01;9.70;99.90
55203;DHT22;41077;52.956;6.796;2022-10-31T08:05:28;9.70;99.90
55203;DHT22;41077;52.956;6.796;2022-10-31T08:07:53;9.80;99.90
55203;DHT22;41077;52.956;6.796;2022-10-31T08:10:20;9.80;99.90
55203;DHT22;41077;52.956;6.796;2022-10-31T08:12:45;9.90;99.90
55203;DHT22;41077;52.956;6.796;2022-10-31T08:15:11;9.90;99.90
55203;DHT22;41077;52.956;6.796;2022-10-31T08:17:37;9.90;99.90
55203;DHT22;41077;52.956;6.796;2022-10-31T08:20:04;9.90;99.90
55203;DHT22;41077;52.956;6.796;2022-10-31T08:22:30;9.90;99.90
55203;DHT22;41077;52.956;6.796;2022-10-31T08:24:56;10.00;99.90
55203;DHT22;41077;52.956;6.796;2022-10-31T08:27:22;10.10;99.90
55203;DHT22;41077;52.956;6.796;2022-10-31T08:29:47;10.10;99.90
55203;DHT22;41077;52.956;6.796;2022-10-31T08:32:13;10.20;99.90
55203;DHT22;41077;52.956;6.796;2022-10-31T08:34:39;10.30;99.90
55203;DHT22;41077;52.956;6.796;2022-10-31T08:37:04;10.40;99.90
55203;DHT22;41077;52.956;6.796;2022-10-31T08:39:30;10.40;99.90
55203;DHT22;41077;52.956;6.796;2022-10-31T08:41:56;10.50;99.90
55203;DHT22;41077;52.956;6.796;2022-10-31T08:44:21;10.70;99.90
55203;DHT22;41077;52.956;6.796;2022-10-31T08:46:47;10.80;99.90
55203;DHT22;41077;52.956;6.796;2022-10-31T08:49:13;10.90;99.90
55203;DHT22;41077;52.956;6.796;2022-10-31T08:51:38;11.00;99.90
55203;DHT22;41077;52.956;6.796;2022-10-31T08:54:04;11.10;99.90
55203;DHT22;41077;52.956;6.796;2022-10-31T08:56:30;11.20;99.90
55203;DHT22;41077;52.956;6.796;2022-10-31T08:58:55;11.40;99.90
55203;DHT22;41077;52.956;6.796;2022-10-31T09:01:21;11.50;99.90
55203;DHT22;41077;52.956;6.796;2022-10-31T09:03:47;11.60;99.90
55203;DHT22;41077;52.956;6.796;2022-10-31T09:06:12;11.70;99.90
55203;DHT22;41077;52.956;6.796;2022-10-31T09:08:38;11.80;99.90
55203;DHT22;41077;52.956;6.796;2022-10-31T09:11:04;11.90;99.90
55203;DHT22;41077;52.956;6.796;2022-10-31T09:13:32;12.00;99.90
55203;DHT22;41077;52.956;6.796;2022-10-31T09:15:58;12.00;99.90
55203;DHT22;41077;52.956;6.796;2022-10-31T09:18:26;12.10;99.90
55203;DHT22;41077;52.956;6.796;2022-10-31T09:20:53;12.20;99.90
55203;DHT22;41077;52.956;6.796;2022-10-31T09:23:21;12.20;99.90
55203;DHT22;41077;52.956;6.796;2022-10-31T09:25:48;12.30;99.90
55203;DHT22;41077;52.956;6.796;2022-10-31T09:28:16;12.40;99.90
55203;DHT22;41077;52.956;6.796;2022-10-31T09:30:42;12.40;99.90
55203;DHT22;41077;52.956;6.796;2022-10-31T09:33:11;12.50;99.90
55203;DHT22;41077;52.956;6.796;2022-10-31T09:35:37;12.60;99.90
55203;DHT22;41077;52.956;6.796;2022-10-31T09:38:05;12.60;99.90
55203;DHT22;41077;52.956;6.796;2022-10-31T09:46:07;12.90;99.90
55203;DHT22;41077;52.956;6.796;2022-10-31T09:48:44;12.90;99.90
55203;DHT22;41077;52.956;6.796;2022-10-31T09:51:18;13.00;99.90
55203;DHT22;41077;52.956;6.796;2022-10-31T09:56:35;13.10;99.90
55203;DHT22;41077;52.956;6.796;2022-10-31T09:59:03;13.10;99.90
55203;DHT22;41077;52.956;6.796;2022-10-31T10:01:54;13.10;99.90
55203;DHT22;41077;52.956;6.796;2022-10-31T10:04:39;13.20;99.90
55203;DHT22;41077;52.956;6.796;2022-10-31T10:15:39;13.30;99.90
55203;DHT22;41077;52.956;6.796;2022-10-31T10:18:11;13.30;99.90
55203;DHT22;41077;52.956;6.796;2022-10-31T10:25:46;13.40;99.90
55203;DHT22;41077;52.956;6.796;2022-10-31T10:31:10;13.50;99.90
55203;DHT22;41077;52.956;6.796;2022-10-31T10:36:32;13.60;99.90
55203;DHT22;41077;52.956;6.796;2022-10-31T10:39:04;13.70;99.90
55203;DHT22;41077;52.956;6.796;2022-10-31T10:41:34;13.80;99.90
55203;DHT22;41077;52.956;6.796;2022-10-31T10:43:59;13.80;99.90
55203;DHT22;41077;52.956;6.796;2022-10-31T10:46:48;13.90;99.90
55203;DHT22;41077;52.956;6.796;2022-10-31T10:49:43;14.00;99.90
55203;DHT22;41077;52.956;6.796;2022-10-31T10:59:48;14.30;99.90
55203;DHT22;41077;52.956;6.796;2022-10-31T11:02:19;14.30;99.90
55203;DHT22;41077;52.956;6.796;2022-10-31T11:04:51;14.40;99.90
55203;DHT22;41077;52.956;6.796;2022-10-31T11:07:17;14.40;99.90
55203;DHT22;41077;52.956;6.796;2022-10-31T11:09:43;14.50;99.90
55203;DHT22;41077;52.956;6.796;2022-10-31T11:12:32;14.60;99.90
55203;DHT22;41077;52.956;6.796;2022-10-31T11:15:05;14.70;99.90
55203;DHT22;41077;52.956;6.796;2022-10-31T11:17:36;14.70;99.90
55203;DHT22;41077;52.956;6.796;2022-10-31T11:22:37;14.80;99.90
55203;DHT22;41077;52.956;6.796;2022-10-31T11:27:46;14.90;99.90
55203;DHT22;41077;52.956;6.796;2022-10-31T11:30:13;15.00;99.90
55203;DHT22;41077;52.956;6.796;2022-10-31T11:32:58;15.00;99.90
55203;DHT22;41077;52.956;6.796;2022-10-31T11:35:24;15.00;99.90
55203;DHT22;41077;52.956;6.796;2022-10-31T11:37:52;14.90;99.90
55203;DHT22;41077;52.956;6.796;2022-10-31T11:40:21;14.90;99.90
55203;DHT22;41077;52.956;6.796;2022-10-31T11:42:48;14.90;99.90
55203;DHT22;41077;52.956;6.796;2022-10-31T11:45:33;14.90;99.90
55203;DHT22;41077;52.956;6.796;2022-10-31T11:48:00;14.90;99.90
55203;DHT22;41077;52.956;6.796;2022-10-31T11:50:35;14.90;99.90
55203;DHT22;41077;52.956;6.796;2022-10-31T11:53:03;14.90;99.90
55203;DHT22;41077;52.956;6.796;2022-10-31T11:55:34;14.90;99.90
55203;DHT22;41077;52.956;6.796;2022-10-31T11:58:00;14.90;99.90
55203;DHT22;41077;52.956;6.796;2022-10-31T12:00:31;14.90;99.90
55203;DHT22;41077;52.956;6.796;2022-10-31T12:06:51;14.90;99.90
55203;DHT22;41077;52.956;6.796;2022-10-31T12:08:51;15.00;99.90
55203;DHT22;41077;52.956;6.796;2022-10-31T12:19:10;15.10;99.90
55203;DHT22;41077;52.956;6.796;2022-10-31T12:22:08;15.10;99.90
55203;DHT22;41077;52.956;6.796;2022-10-31T12:32:59;15.10;99.90
55203;DHT22;41077;52.956;6.796;2022-10-31T12:44:25;15.10;99.90
55203;DHT22;41077;52.956;6.796;2022-10-31T12:52:39;15.10;99.90
55203;DHT22;41077;52.956;6.796;2022-10-31T12:57:51;15.10;99.90
55203;DHT22;41077;52.956;6.796;2022-10-31T13:00:19;15.10;99.90
55203;DHT22;41077;52.956;6.796;2022-10-31T13:05:32;15.20;99.90
55203;DHT22;41077;52.956;6.796;2022-10-31T13:12:56;15.20;99.90
55203;DHT22;41077;52.956;6.796;2022-10-31T13:15:26;15.20;99.90
55203;DHT22;41077;52.956;6.796;2022-10-31T13:17:58;15.20;99.90
55203;DHT22;41077;52.956;6.796;2022-10-31T13:20:34;15.20;99.90
55203;DHT22;41077;52.956;6.796;2022-10-31T13:23:21;15.30;99.90
55203;DHT22;41077;52.956;6.796;2022-10-31T13:25:54;15.30;99.90
55203;DHT22;41077;52.956;6.796;2022-10-31T13:31:06;15.40;99.90
55203;DHT22;41077;52.956;6.796;2022-10-31T13:33:51;15.50;99.90
55203;DHT22;41077;52.956;6.796;2022-10-31T13:36:35;15.70;99.90
55203;DHT22;41077;52.956;6.796;2022-10-31T13:41:51;16.00;99.90
55203;DHT22;41077;52.956;6.796;2022-10-31T13:44:21;16.00;99.90
55203;DHT22;41077;52.956;6.796;2022-10-31T13:46:49;16.00;99.90
55203;DHT22;41077;52.956;6.796;2022-10-31T13:54:39;15.90;99.90
55203;DHT22;41077;52.956;6.796;2022-10-31T13:57:19;15.90;99.90
55203;DHT22;41077;52.956;6.796;2022-10-31T13:59:53;15.80;99.90
55203;DHT22;41077;52.956;6.796;2022-10-31T14:02:29;15.80;99.90
55203;DHT22;41077;52.956;6.796;2022-10-31T14:07:52;15.80;99.90
55203;DHT22;41077;52.956;6.796;2022-10-31T14:10:35;15.80;99.90
55203;DHT22;41077;52.956;6.796;2022-10-31T14:13:16;15.70;99.90
55203;DHT22;41077;52.956;6.796;2022-10-31T14:16:02;15.70;99.90
55203;DHT22;41077;52.956;6.796;2022-10-31T14:18:33;15.70;99.90
55203;DHT22;41077;52.956;6.796;2022-10-31T14:21:00;15.60;99.90
55203;DHT22;41077;52.956;6.796;2022-10-31T14:23:38;15.60;99.90
55203;DHT22;41077;52.956;6.796;2022-10-31T14:28:53;15.50;99.90
55203;DHT22;41077;52.956;6.796;2022-10-31T14:31:33;15.50;99.90
55203;DHT22;41077;52.956;6.796;2022-10-31T14:34:37;15.40;99.90
55203;DHT22;41077;52.956;6.796;2022-10-31T14:45:25;15.40;99.90
55203;DHT22;41077;52.956;6.796;2022-10-31T14:53:27;15.30;99.90
55203;DHT22;41077;52.956;6.796;2022-10-31T14:55:55;15.30;99.90
55203;DHT22;41077;52.956;6.796;2022-10-31T14:58:42;15.20;99.90
55203;DHT22;41077;52.956;6.796;2022-10-31T15:01:25;15.20;99.90
55203;DHT22;41077;52.956;6.796;2022-10-31T15:03:55;15.20;99.90
55203;DHT22;41077;52.956;6.796;2022-10-31T15:06:23;15.10;99.90
55203;DHT22;41077;52.956;6.796;2022-10-31T15:08:51;15.10;99.90
55203;DHT22;41077;52.956;6.796;2022-10-31T15:11:23;15.10;99.90
55203;DHT22;41077;52.956;6.796;2022-10-31T15:13:54;15.10;99.90
55203;DHT22;41077;52.956;6.796;2022-10-31T15:16:24;15.00;99.90
55203;DHT22;41077;52.956;6.796;2022-10-31T15:18:55;15.00;99.90
55203;DHT22;41077;52.956;6.796;2022-10-31T15:21:23;15.00;99.90
55203;DHT22;41077;52.956;6.796;2022-10-31T15:23:52;14.90;99.90
55203;DHT22;41077;52.956;6.796;2022-10-31T15:26:21;14.90;99.90
55203;DHT22;41077;52.956;6.796;2022-10-31T15:29:04;14.90;99.90
55203;DHT22;41077;52.956;6.796;2022-10-31T15:31:31;14.90;99.90
55203;DHT22;41077;52.956;6.796;2022-10-31T15:34:03;14.80;99.90
55203;DHT22;41077;52.956;6.796;2022-10-31T15:36:29;14.80;99.90
55203;DHT22;41077;52.956;6.796;2022-10-31T15:38:56;14.80;99.90
55203;DHT22;41077;52.956;6.796;2022-10-31T15:41:33;14.80;99.90
55203;DHT22;41077;52.956;6.796;2022-10-31T15:44:11;14.70;99.90
55203;DHT22;41077;52.956;6.796;2022-10-31T15:46:38;14.70;99.90
55203;DHT22;41077;52.956;6.796;2022-10-31T15:49:03;14.70;99.90
55203;DHT22;41077;52.956;6.796;2022-10-31T15:51:33;14.60;99.90
55203;DHT22;41077;52.956;6.796;2022-10-31T15:54:00;14.60;99.90
55203;DHT22;41077;52.956;6.796;2022-10-31T15:56:29;14.50;99.90
55203;DHT22;41077;52.956;6.796;2022-10-31T15:58:57;14.50;99.90
55203;DHT22;41077;52.956;6.796;2022-10-31T16:01:28;14.40;99.90
55203;DHT22;41077;52.956;6.796;2022-10-31T16:04:24;14.40;99.90
55203;DHT22;41077;52.956;6.796;2022-10-31T16:07:12;14.30;99.90
55203;DHT22;41077;52.956;6.796;2022-10-31T16:09:51;14.20;99.90
55203;DHT22;41077;52.956;6.796;2022-10-31T16:12:17;14.10;99.90
55203;DHT22;41077;52.956;6.796;2022-10-31T16:14:43;14.00;99.90
55203;DHT22;41077;52.956;6.796;2022-10-31T16:17:14;14.00;99.90
55203;DHT22;41077;52.956;6.796;2022-10-31T16:22:41;13.90;99.90
55203;DHT22;41077;52.956;6.796;2022-10-31T16:25:14;13.90;99.90
55203;DHT22;41077;52.956;6.796;2022-10-31T16:27:48;13.90;99.90
55203;DHT22;41077;52.956;6.796;2022-10-31T16:30:30;13.90;99.90
55203;DHT22;41077;52.956;6.796;2022-10-31T16:33:00;13.90;99.90
55203;DHT22;41077;52.956;6.796;2022-10-31T16:35:37;13.90;99.90
55203;DHT22;41077;52.956;6.796;2022-10-31T16:38:03;13.90;99.90
55203;DHT22;41077;52.956;6.796;2022-10-31T16:40:29;13.80;99.90
55203;DHT22;41077;52.956;6.796;2022-10-31T16:42:57;13.80;99.90
55203;DHT22;41077;52.956;6.796;2022-10-31T16:45:26;13.80;99.90
55203;DHT22;41077;52.956;6.796;2022-10-31T16:47:53;13.80;99.90
55203;DHT22;41077;52.956;6.796;2022-10-31T16:50:26;13.80;99.90
55203;DHT22;41077;52.956;6.796;2022-10-31T16:52:52;13.80;99.90
55203;DHT22;41077;52.956;6.796;2022-10-31T16:55:19;13.80;99.90
55203;DHT22;41077;52.956;6.796;2022-10-31T16:57:54;13.80;99.90
55203;DHT22;41077;52.956;6.796;2022-10-31T17:00:25;13.70;99.90
55203;DHT22;41077;52.956;6.796;2022-10-31T17:02:53;13.70;99.90
55203;DHT22;41077;52.956;6.796;2022-10-31T17:05:21;13.70;99.90
55203;DHT22;41077;52.956;6.796;2022-10-31T17:07:47;13.70;99.90
55203;DHT22;41077;52.956;6.796;2022-10-31T17:10:14;13.70;99.90
55203;DHT22;41077;52.956;6.796;2022-10-31T17:12:43;13.70;99.90
55203;DHT22;41077;52.956;6.796;2022-10-31T17:15:22;13.70;99.90
55203;DHT22;41077;52.956;6.796;2022-10-31T17:17:48;13.70;99.90
55203;DHT22;41077;52.956;6.796;2022-10-31T17:20:34;13.70;99.90
55203;DHT22;41077;52.956;6.796;2022-10-31T17:23:00;13.70;99.90
55203;DHT22;41077;52.956;6.796;2022-10-31T17:25:28;13.70;99.90
55203;DHT22;41077;52.956;6.796;2022-10-31T17:27:54;13.70;99.90
55203;DHT22;41077;52.956;6.796;2022-10-31T17:30:21;13.80;99.90
55203;DHT22;41077;52.956;6.796;2022-10-31T17:32:47;13.80;99.90
55203;DHT22;41077;52.956;6.796;2022-10-31T17:35:14;13.80;99.90
55203;DHT22;41077;52.956;6.796;2022-10-31T17:37:41;13.80;99.90
55203;DHT22;41077;52.956;6.796;2022-10-31T17:40:08;13.80;99.90
55203;DHT22;41077;52.956;6.796;2022-10-31T17:42:34;13.90;99.90
55203;DHT22;41077;52.956;6.796;2022-10-31T17:45:00;13.90;99.90
55203;DHT22;41077;52.956;6.796;2022-10-31T17:47:26;13.90;99.90
55203;DHT22;41077;52.956;6.796;2022-10-31T17:49:51;13.90;99.90
55203;DHT22;41077;52.956;6.796;2022-10-31T17:52:18;13.90;99.90
55203;DHT22;41077;52.956;6.796;2022-10-31T17:54:44;13.90;99.90
55203;DHT22;41077;52.956;6.796;2022-10-31T17:57:10;13.90;99.90
55203;DHT22;41077;52.956;6.796;2022-10-31T17:59:35;14.00;99.90
55203;DHT22;41077;52.956;6.796;2022-10-31T18:02:01;14.00;99.90
55203;DHT22;41077;52.956;6.796;2022-10-31T18:04:33;13.90;99.90
55203;DHT22;41077;52.956;6.796;2022-10-31T18:06:59;14.00;99.90
55203;DHT22;41077;52.956;6.796;2022-10-31T18:09:25;14.00;99.90
55203;DHT22;41077;52.956;6.796;2022-10-31T18:11:50;14.00;99.90
55203;DHT22;41077;52.956;6.796;2022-10-31T18:14:16;14.00;99.90